• Join FlightAware (Why Join?)
  • Login
  • US Flag 
12:58PM EDT


 

Airport Tracker/Info


-or-


 

Live Flight TrackerFlight Track Log ✈ JTA1562 ✈ 15-Jun-2013 ✈ ROMY / MMY - ROAH / OKA

Flight Track Log - Related Links

Times and Time Zones

All times are in EDT time to prevent confusion due to time zone crossing. See the JTA1562 flight status page for this flight to view local times or setup timezone preferences in your user account.

Time Position Orientation Groundspeed Altitude Reporting Facility
EDT Latitude Longitude Course Direction KTS MPH feet Rate Location/Type
01:36AM 24.9540 125.5738 56° Northeast  Level Estimated
01:37AM 25.0110 125.6668 56° Northeast  Level Estimated
01:38AM 25.0679 125.7600 56° Northeast  Level Estimated
01:39AM 25.1247 125.8532 56° Northeast  Level Estimated
01:40AM 25.1815 125.9466 56° Northeast  Level Estimated
01:41AM 25.2382 126.0400 56° Northeast  Level Estimated
01:42AM 25.2949 126.1335 56° Northeast  Level Estimated
01:43AM 25.3515 126.2271 56° Northeast  Level Estimated
01:44AM 25.4080 126.3207 56° Northeast  Level Estimated
01:45AM 25.4645 126.4145 56° Northeast  Level Estimated
01:46AM 25.5209 126.5083 56° Northeast  Level Estimated
01:47AM 25.5773 126.6023 56° Northeast  Level Estimated
01:48AM 25.6336 126.6963 56° Northeast  Level Estimated
01:49AM 25.6898 126.7904 56° Northeast  Level Estimated
01:50AM 25.7460 126.8846 56° Northeast  Level Estimated
01:51AM 25.8021 126.9789 57° Northeast  Level Estimated
01:52AM 25.8582 127.0733 57° Northeast  Level Estimated
01:53AM 25.9142 127.1678 57° Northeast  Level Estimated
01:54AM 25.9701 127.2623 57° Northeast  Level Estimated
01:55AM 26.0260 127.3570 57° Northeast  Level Estimated
01:56AM 26.0818 127.4517 57° Northeast  Level Estimated
01:57AM 26.1424 127.5548 57° Northeast  Level Estimated
01:58AM 26.1958 127.6459 57° Northeast  Level Estimated
01:59AM 26.1958 127.6459 347° North  Level Estimated
02:00AM 26.1958 127.6459 347° North  Level Estimated
02:01AM 26.1958 127.6459 347° North  Level Estimated
02:02AM 26.1958 127.6459 347° North  Level Estimated
02:03AM 26.1958 127.6459 347° North  Level Estimated
02:04AM 26.1958 127.6459 347° North  Level Estimated
02:05AM 26.1958 127.6459 347° North  Level Estimated
02:06AM 26.1958 127.6459 347° North  Level Estimated
02:07AM 26.1958 127.6459 347° North  Level Estimated
02:08AM 26.1958 127.6459 347° North  Level Estimated
02:09AM 26.1958 127.6459 347° North  Level Estimated
02:10AM 26.1958 127.6459 347° North  Level Estimated